createdAt,value
2022-11-21T00:00:23.256Z,69.87
2022-11-21T00:02:49.577Z,70.13
2022-11-21T00:05:15.909Z,70.66
2022-11-21T00:07:42.271Z,70.38
2022-11-21T00:10:08.780Z,70.72
2022-11-21T00:12:35.166Z,70.44
2022-11-21T00:15:01.470Z,71.35
2022-11-21T00:17:27.760Z,71.11
2022-11-21T00:19:54.051Z,72.18
2022-11-21T00:22:20.327Z,70.57
2022-11-21T00:24:49.476Z,70.60
2022-11-21T00:27:17.993Z,71.57
2022-11-21T00:29:44.263Z,69.94
2022-11-21T00:32:10.519Z,71.35
2022-11-21T00:34:36.837Z,70.63
2022-11-21T00:37:03.118Z,72.62
2022-11-21T00:39:29.395Z,71.43
2022-11-21T00:41:55.701Z,70.39
2022-11-21T00:44:21.979Z,70.28
2022-11-21T00:46:48.256Z,70.26
2022-11-21T00:49:14.555Z,69.99
2022-11-21T00:51:40.865Z,70.14
2022-11-21T00:54:08.310Z,70.28
2022-11-21T00:56:34.597Z,71.69
2022-11-21T00:59:00.870Z,70.46
2022-11-21T01:01:27.248Z,69.90
2022-11-21T01:03:53.566Z,70.65
2022-11-21T01:06:19.835Z,70.90
2022-11-21T01:08:46.117Z,69.48
2022-11-21T01:11:16.436Z,70.30
2022-11-21T01:13:43.088Z,70.23
2022-11-21T01:16:10.952Z,70.02
2022-11-21T01:18:37.426Z,68.99
2022-11-21T01:21:04.796Z,71.24
2022-11-21T01:23:31.122Z,70.45
2022-11-21T01:26:04.232Z,71.37
2022-11-21T01:28:30.967Z,70.39
2022-11-21T01:31:03.048Z,71.95
2022-11-21T01:33:29.347Z,72.12
2022-11-21T01:35:55.609Z,71.48
2022-11-21T01:38:22.065Z,71.96
2022-11-21T01:40:48.348Z,70.84
2022-11-21T01:43:15.667Z,72.43
2022-11-21T01:46:03.491Z,71.27
2022-11-21T01:48:36.324Z,71.29
2022-11-21T01:51:05.850Z,72.06
2022-11-21T01:53:32.431Z,72.76
2022-11-21T01:55:58.733Z,71.66
2022-11-21T01:58:25.264Z,72.14
2022-11-21T02:00:51.690Z,71.48
2022-11-21T02:03:20.967Z,73.12
2022-11-21T02:05:47.448Z,71.97
2022-11-21T02:08:15.588Z,71.85
2022-11-21T02:10:46.752Z,73.21
2022-11-21T02:13:13.027Z,72.09
2022-11-21T02:15:39.359Z,71.64
2022-11-21T02:18:09.076Z,72.64
2022-11-21T02:20:36.794Z,71.85
2022-11-21T02:23:13.091Z,71.26
2022-11-21T02:25:41.393Z,71.68
2022-11-21T02:28:19.166Z,71.50
2022-11-21T02:30:45.933Z,70.72
2022-11-21T02:33:13.245Z,70.86
2022-11-21T02:35:39.993Z,70.37
2022-11-21T02:38:21.327Z,69.37
2022-11-21T02:40:53.867Z,71.00
2022-11-21T02:43:29.668Z,70.53
2022-11-21T02:45:56.216Z,70.29
2022-11-21T02:48:22.514Z,70.29
2022-11-21T02:50:48.798Z,70.47
2022-11-21T02:53:17.066Z,71.10
2022-11-21T02:55:44.113Z,69.95
2022-11-21T02:58:10.966Z,70.68
2022-11-21T03:00:37.972Z,71.19
2022-11-21T03:03:04.650Z,71.04
2022-11-21T03:05:31.296Z,71.36
2022-11-21T03:07:57.720Z,70.91
2022-11-21T03:10:24.328Z,73.48
2022-11-21T03:12:50.628Z,72.30
2022-11-21T03:15:17.043Z,72.29
2022-11-21T03:17:43.355Z,73.09
2022-11-21T03:20:10.297Z,73.59
2022-11-21T03:22:36.687Z,72.78
2022-11-21T03:25:03.064Z,74.05
2022-11-21T03:27:29.363Z,72.43
2022-11-21T03:29:55.690Z,72.33
2022-11-21T03:32:21.963Z,72.33
2022-11-21T03:34:48.589Z,72.77
2022-11-21T03:37:14.877Z,73.31
2022-11-21T03:39:41.136Z,72.29
2022-11-21T03:42:07.456Z,71.47
2022-11-21T03:44:33.779Z,71.94
2022-11-21T03:47:00.040Z,73.75
2022-11-21T03:49:26.356Z,72.43
2022-11-21T03:51:52.658Z,73.66
2022-11-21T03:54:18.986Z,71.93
2022-11-21T03:56:45.264Z,71.75
2022-11-21T03:59:11.597Z,71.18
2022-11-21T04:01:37.937Z,71.68
2022-11-21T04:04:04.876Z,72.15
2022-11-21T04:06:31.664Z,71.52
2022-11-21T04:08:58.220Z,72.48
2022-11-21T04:11:24.697Z,72.18
2022-11-21T04:13:53.895Z,72.49
2022-11-21T04:16:20.172Z,72.16
2022-11-21T04:18:46.539Z,70.86
2022-11-21T04:21:12.838Z,71.18
2022-11-21T04:23:39.159Z,71.23
2022-11-21T04:26:05.567Z,70.02
2022-11-21T04:28:31.913Z,71.01
2022-11-21T04:31:10.715Z,71.88
2022-11-21T04:33:37.991Z,71.26
2022-11-21T04:36:04.402Z,70.39
2022-11-21T04:38:30.672Z,71.07
2022-11-21T04:40:56.977Z,70.08
2022-11-21T04:43:23.308Z,69.85
2022-11-21T04:45:49.624Z,71.04
2022-11-21T04:48:15.919Z,70.99
2022-11-21T04:50:42.236Z,70.68
2022-11-21T04:53:08.573Z,71.68
2022-11-21T04:55:34.902Z,72.17
2022-11-21T04:58:01.304Z,70.97
2022-11-21T05:00:27.616Z,70.50
2022-11-21T05:02:53.947Z,70.53
2022-11-21T05:05:20.412Z,71.89
2022-11-21T05:07:46.783Z,70.51
2022-11-21T05:10:13.107Z,71.70
2022-11-21T05:12:57.882Z,72.11
2022-11-21T05:15:24.975Z,72.12
2022-11-21T05:17:51.499Z,70.88
2022-11-21T05:20:18.749Z,71.11
2022-11-21T05:22:49.693Z,71.74
2022-11-21T05:25:16.160Z,70.54
2022-11-21T05:27:42.441Z,70.49
2022-11-21T05:30:09.194Z,71.40
2022-11-21T05:32:35.501Z,70.05
2022-11-21T05:35:01.996Z,69.84
2022-11-21T05:37:28.309Z,70.07
2022-11-21T05:39:54.622Z,71.92
2022-11-21T05:42:40.874Z,70.31
2022-11-21T05:45:07.514Z,70.74
2022-11-21T05:47:33.809Z,71.18
2022-11-21T05:50:00.113Z,71.53
2022-11-21T05:52:27.754Z,70.37
2022-11-21T05:54:54.069Z,71.67
2022-11-21T05:57:20.467Z,72.29
2022-11-21T05:59:46.766Z,72.84
2022-11-21T06:02:31.425Z,71.73
2022-11-21T06:04:57.700Z,70.68
2022-11-21T06:07:24.019Z,71.75
2022-11-21T06:09:50.359Z,70.45
2022-11-21T06:12:19.284Z,70.32
2022-11-21T06:14:47.857Z,71.98
2022-11-21T06:17:14.159Z,71.24
2022-11-21T06:19:40.424Z,71.32
2022-11-21T06:22:06.704Z,70.33
2022-11-21T06:24:32.983Z,71.35
2022-11-21T06:26:59.244Z,70.36
2022-11-21T06:29:25.532Z,71.65
2022-11-21T06:31:51.939Z,71.99
2022-11-21T06:34:18.223Z,70.97
2022-11-21T06:36:44.683Z,70.21
2022-11-21T06:39:11.511Z,70.89
2022-11-21T06:41:37.803Z,70.62
2022-11-21T06:44:04.168Z,71.31
2022-11-21T06:46:30.496Z,71.99
2022-11-21T06:48:56.780Z,71.06
2022-11-21T06:51:23.893Z,71.24
2022-11-21T06:53:57.118Z,70.32
2022-11-21T06:56:23.955Z,70.49
2022-11-21T06:58:50.235Z,70.38
2022-11-21T07:01:16.656Z,71.11
2022-11-21T07:03:42.949Z,70.34
2022-11-21T07:06:09.381Z,71.33
2022-11-21T07:08:36.062Z,71.61
2022-11-21T07:13:53.164Z,71.52
2022-11-21T07:16:19.535Z,71.37
2022-11-21T07:18:45.835Z,71.13
2022-11-21T07:21:12.165Z,71.60
2022-11-21T07:23:38.484Z,70.94
2022-11-21T07:26:06.187Z,71.37
2022-11-21T07:28:33.004Z,71.02
2022-11-21T07:31:00.127Z,70.80
2022-11-21T07:33:26.805Z,70.73
2022-11-21T07:35:55.323Z,70.77
2022-11-21T07:38:21.730Z,70.06
2022-11-21T07:40:48.055Z,70.49
2022-11-21T07:43:14.340Z,71.56
2022-11-21T07:45:40.726Z,70.70
2022-11-21T07:48:08.059Z,71.41
2022-11-21T07:50:34.440Z,70.52
2022-11-21T07:53:01.667Z,70.69
2022-11-21T07:55:31.844Z,70.71
2022-11-21T07:58:01.213Z,70.81
2022-11-21T08:00:28.339Z,70.72
2022-11-21T08:02:54.763Z,70.66
2022-11-21T08:05:21.226Z,69.91
2022-11-21T08:07:47.659Z,69.23
2022-11-21T08:10:14.506Z,69.93
2022-11-21T08:12:40.844Z,71.25
2022-11-21T08:15:07.301Z,70.66
2022-11-21T08:17:33.666Z,70.71
2022-11-21T08:20:00.661Z,70.94
2022-11-21T08:22:27.240Z,71.16
2022-11-21T08:24:56.277Z,71.09
2022-11-21T08:27:24.364Z,69.69
2022-11-21T08:29:50.687Z,69.36
2022-11-21T08:32:17.193Z,69.52
2022-11-21T08:34:43.600Z,70.52
2022-11-21T08:37:09.904Z,70.12
2022-11-21T08:39:36.209Z,69.89
2022-11-21T08:42:05.639Z,70.21
2022-11-21T08:44:35.375Z,69.97
2022-11-21T08:47:02.321Z,68.79
2022-11-21T08:49:28.839Z,68.74
2022-11-21T08:51:55.116Z,67.69
2022-11-21T08:54:22.708Z,68.82
2022-11-21T08:56:49.440Z,68.74
2022-11-21T08:59:16.434Z,68.69
2022-11-21T09:01:43.173Z,69.71
2022-11-21T09:04:09.804Z,68.18
2022-11-21T09:06:36.328Z,69.67
2022-11-21T09:09:04.678Z,68.35
2022-11-21T09:11:31.317Z,69.30
2022-11-21T09:14:17.400Z,68.67
2022-11-21T09:17:02.692Z,68.42
2022-11-21T09:19:29.390Z,67.59
2022-11-21T09:21:56.006Z,67.17
2022-11-21T09:24:22.346Z,66.65
2022-11-21T09:26:48.613Z,67.48
2022-11-21T09:29:15.216Z,67.67
2022-11-21T09:31:41.957Z,67.94
2022-11-21T09:34:08.712Z,68.08
2022-11-21T09:36:35.059Z,67.88
2022-11-21T09:39:01.449Z,68.88
2022-11-21T09:41:51.160Z,67.19
2022-11-21T09:44:17.489Z,67.71
2022-11-21T09:46:46.025Z,67.96
2022-11-21T09:49:13.072Z,67.61
2022-11-21T09:51:40.905Z,67.86
2022-11-21T09:54:10.075Z,68.64
2022-11-21T09:56:38.241Z,69.03
2022-11-21T09:59:14.644Z,70.10
2022-11-21T10:01:40.988Z,69.54
2022-11-21T10:04:07.427Z,70.02
2022-11-21T10:06:44.818Z,70.11
2022-11-21T10:09:14.277Z,69.10
2022-11-21T10:12:09.933Z,69.57
2022-11-21T10:14:45.828Z,69.08
2022-11-21T10:17:18.221Z,70.19
2022-11-21T10:19:49.959Z,68.75
2022-11-21T10:22:22.423Z,70.05
2022-11-21T10:24:53.380Z,68.34
2022-11-21T10:27:35.283Z,70.20
2022-11-21T10:30:05.725Z,70.03
2022-11-21T10:32:40.491Z,70.20
2022-11-21T10:35:14.787Z,69.17
2022-11-21T10:37:49.849Z,70.18
2022-11-21T10:40:22.197Z,70.46
2022-11-21T10:42:55.003Z,68.74
2022-11-21T10:45:22.839Z,69.51
2022-11-21T10:47:50.088Z,70.57
2022-11-21T10:50:31.702Z,68.77
2022-11-21T10:53:24.146Z,69.65
2022-11-21T10:56:16.749Z,70.23
2022-11-21T10:58:44.408Z,70.62
2022-11-21T11:01:28.983Z,69.53
2022-11-21T11:06:57.126Z,70.19
2022-11-21T11:09:29.948Z,71.01
2022-11-21T11:12:15.117Z,70.11
2022-11-21T11:14:41.600Z,69.95
2022-11-21T11:17:13.675Z,71.47
2022-11-21T11:19:40.661Z,70.11
2022-11-21T11:22:26.260Z,70.40
2022-11-21T11:24:57.487Z,70.21
2022-11-21T11:27:27.232Z,69.94
2022-11-21T11:29:53.849Z,70.22
2022-11-21T11:32:21.870Z,68.92
2022-11-21T11:35:01.308Z,70.42
2022-11-21T11:37:41.696Z,70.60
2022-11-21T11:40:26.700Z,69.82
2022-11-21T11:43:17.689Z,71.40
2022-11-21T11:46:05.619Z,69.35
2022-11-21T11:48:50.441Z,70.39
2022-11-21T11:51:23.953Z,69.25
2022-11-21T11:54:03.483Z,69.35
2022-11-21T11:56:37.016Z,69.96
2022-11-21T11:59:07.232Z,69.59
2022-11-21T12:01:39.427Z,69.50
2022-11-21T12:04:10.730Z,68.81
2022-11-21T12:10:11.360Z,70.27
2022-11-21T12:12:38.961Z,70.46
2022-11-21T12:15:43.902Z,68.90
2022-11-21T12:18:23.042Z,69.91
2022-11-21T12:21:08.697Z,69.71
2022-11-21T12:23:47.372Z,68.27
2022-11-21T12:26:28.712Z,69.72
2022-11-21T12:29:13.283Z,70.02
2022-11-21T12:31:51.716Z,68.22
2022-11-21T12:34:27.048Z,68.07
2022-11-21T12:36:57.886Z,69.52
2022-11-21T12:39:24.165Z,69.04
2022-11-21T12:42:17.180Z,68.86
2022-11-21T12:44:52.327Z,67.74
2022-11-21T12:47:53.742Z,69.36
2022-11-21T12:51:01.011Z,67.69
2022-11-21T12:53:51.718Z,68.51
2022-11-21T12:56:23.993Z,68.66
2022-11-21T12:58:51.816Z,69.71
2022-11-21T13:01:22.194Z,69.75
2022-11-21T13:04:18.132Z,68.84
2022-11-21T13:06:58.773Z,69.21
2022-11-21T13:09:28.269Z,68.91
2022-11-21T13:12:00.602Z,68.65
2022-11-21T13:14:45.139Z,70.26
2022-11-21T13:17:14.485Z,68.88
2022-11-21T13:19:56.242Z,69.98
2022-11-21T13:22:38.090Z,70.35
2022-11-21T13:25:30.308Z,68.91
2022-11-21T13:28:19.406Z,68.87
2022-11-21T13:30:49.661Z,68.91
2022-11-21T13:33:34.415Z,69.16
2022-11-21T13:36:10.804Z,70.02
2022-11-21T13:38:55.226Z,69.98
2022-11-21T13:41:52.632Z,69.26
2022-11-21T13:44:31.264Z,70.24
2022-11-21T13:47:03.169Z,69.38
2022-11-21T13:49:38.948Z,69.70
2022-11-21T13:52:42.401Z,69.20
2022-11-21T13:55:30.341Z,69.27
2022-11-21T13:58:27.805Z,69.38
2022-11-21T14:01:35.327Z,69.61
2022-11-21T14:04:32.224Z,69.96
2022-11-21T14:07:26.000Z,68.93
2022-11-21T14:09:55.871Z,68.63
2022-11-21T14:12:33.264Z,68.40
2022-11-21T14:15:01.760Z,68.44
2022-11-21T14:17:44.566Z,68.17
2022-11-21T14:20:48.714Z,69.96
2022-11-21T14:23:18.565Z,69.90
2022-11-21T14:25:53.913Z,68.98
2022-11-21T14:28:31.937Z,69.70
2022-11-21T14:31:01.800Z,68.26
2022-11-21T14:33:32.415Z,69.50
2022-11-21T14:36:19.073Z,69.35
2022-11-21T14:39:02.139Z,69.70
2022-11-21T14:41:37.003Z,69.52
2022-11-21T14:44:05.992Z,69.68
2022-11-21T14:46:32.635Z,68.76
2022-11-21T14:49:17.222Z,69.51
2022-11-21T14:51:48.196Z,68.95
2022-11-21T14:54:20.874Z,69.12
2022-11-21T14:56:54.441Z,69.66
2022-11-21T14:59:27.428Z,70.40
2022-11-21T15:02:11.267Z,69.16
2022-11-21T15:04:37.933Z,68.63
2022-11-21T15:07:05.041Z,68.63
2022-11-21T15:12:35.465Z,68.57
2022-11-21T15:15:21.247Z,69.31
2022-11-21T15:18:23.855Z,70.38
2022-11-21T15:20:47.953Z,69.05
2022-11-21T15:23:39.999Z,70.44
2022-11-21T15:26:26.301Z,69.69
2022-11-21T15:28:57.357Z,70.44
2022-11-21T15:31:23.947Z,69.43
2022-11-21T15:37:17.452Z,69.78
2022-11-21T15:39:45.578Z,69.97
2022-11-21T15:42:33.650Z,70.63
2022-11-21T15:45:21.090Z,69.59
2022-11-21T15:47:48.549Z,69.10
2022-11-21T15:50:16.168Z,69.16
2022-11-21T15:52:48.279Z,70.32
2022-11-21T15:55:22.085Z,69.24
2022-11-21T15:57:49.885Z,69.95
2022-11-21T16:00:17.334Z,69.99
2022-11-21T16:02:43.759Z,70.37
2022-11-21T16:05:14.191Z,69.70
2022-11-21T16:07:41.630Z,70.75
2022-11-21T16:10:17.259Z,69.90
2022-11-21T16:12:47.097Z,70.00
2022-11-21T16:15:14.142Z,69.63
2022-11-21T16:17:41.549Z,71.38
2022-11-21T16:20:08.459Z,70.65
2022-11-21T16:22:34.867Z,70.85
2022-11-21T16:25:01.239Z,70.25
2022-11-21T16:27:27.810Z,71.64
2022-11-21T16:29:54.206Z,71.32
2022-11-21T16:32:20.641Z,69.57
2022-11-21T16:34:47.215Z,69.41
2022-11-21T16:37:14.331Z,70.21
2022-11-21T16:39:41.793Z,69.99
2022-11-21T16:42:10.276Z,71.03
2022-11-21T16:44:36.666Z,70.16
2022-11-21T16:47:08.021Z,71.11
2022-11-21T16:49:35.001Z,70.23
2022-11-21T16:52:01.436Z,71.41
2022-11-21T16:54:27.905Z,70.96
2022-11-21T16:56:54.354Z,70.02
2022-11-21T16:59:20.752Z,69.99
2022-11-21T17:01:47.386Z,70.47
2022-11-21T17:04:17.222Z,70.59
2022-11-21T17:06:44.813Z,69.91
2022-11-21T17:09:11.488Z,69.95
2022-11-21T17:11:38.012Z,69.72
2022-11-21T17:14:06.170Z,70.48
2022-11-21T17:16:34.490Z,71.20
2022-11-21T17:19:02.629Z,70.10
2022-11-21T17:21:29.887Z,70.73
2022-11-21T17:23:56.720Z,71.35
2022-11-21T17:26:25.305Z,71.44
2022-11-21T17:28:57.476Z,70.11
2022-11-21T17:31:24.440Z,69.86
2022-11-21T17:33:54.696Z,70.02
2022-11-21T17:36:23.448Z,69.76
2022-11-21T17:38:50.224Z,70.27
2022-11-21T17:41:19.038Z,70.38
2022-11-21T17:43:47.208Z,70.69
2022-11-21T17:46:18.309Z,70.92
2022-11-21T17:48:51.252Z,69.05
2022-11-21T17:51:23.153Z,70.33
2022-11-21T17:53:50.925Z,70.38
2022-11-21T17:56:22.778Z,70.67
2022-11-21T17:58:50.598Z,70.49
2022-11-21T18:01:20.757Z,71.68
2022-11-21T18:03:53.947Z,70.84
2022-11-21T18:06:20.612Z,70.81
2022-11-21T18:08:48.258Z,70.92
2022-11-21T18:11:18.328Z,70.70
2022-11-21T18:13:45.574Z,70.54
2022-11-21T18:16:14.843Z,70.22
2022-11-21T18:18:41.831Z,71.63
2022-11-21T18:21:18.898Z,70.37
2022-11-21T18:23:45.429Z,70.32
2022-11-21T18:26:14.464Z,70.39
2022-11-21T18:28:41.580Z,70.49
2022-11-21T18:31:08.046Z,70.90
2022-11-21T18:33:35.568Z,70.10
2022-11-21T18:36:03.260Z,69.92
2022-11-21T18:38:48.899Z,70.85
2022-11-21T18:41:17.957Z,70.44
2022-11-21T18:43:49.396Z,70.88
2022-11-21T18:46:15.837Z,70.18
2022-11-21T18:49:01.344Z,70.76
2022-11-21T18:51:30.749Z,71.94
2022-11-21T18:53:59.203Z,72.22
2022-11-21T18:56:25.854Z,70.03
2022-11-21T18:58:58.141Z,71.46
2022-11-21T19:01:27.221Z,71.63
2022-11-21T19:03:54.471Z,71.10
2022-11-21T19:06:22.689Z,71.74
2022-11-21T19:08:50.967Z,71.38
2022-11-21T19:11:17.703Z,70.19
2022-11-21T19:13:44.634Z,70.27
2022-11-21T19:16:14.184Z,71.94
2022-11-21T19:18:44.208Z,70.84
2022-11-21T19:21:13.993Z,71.21
2022-11-21T19:23:41.908Z,70.51
2022-11-21T19:26:11.182Z,70.85
2022-11-21T19:28:37.748Z,70.44
2022-11-21T19:31:07.484Z,70.00
2022-11-21T19:33:34.340Z,70.57
2022-11-21T19:36:07.896Z,70.85
2022-11-21T19:38:34.559Z,71.11
2022-11-21T19:41:18.508Z,70.35
2022-11-21T19:43:59.241Z,70.52
2022-11-21T19:46:33.242Z,71.88
2022-11-21T19:49:00.395Z,71.02
2022-11-21T19:51:36.463Z,70.84
2022-11-21T19:54:04.603Z,71.19
2022-11-21T19:56:31.279Z,70.44
2022-11-21T19:58:58.474Z,70.71
2022-11-21T20:01:28.423Z,71.21
2022-11-21T20:03:59.881Z,71.23
2022-11-21T20:06:29.020Z,71.25
2022-11-21T20:09:00.890Z,71.31
2022-11-21T20:11:29.857Z,71.63
2022-11-21T20:13:57.020Z,70.10
2022-11-21T20:16:31.914Z,71.38
2022-11-21T20:19:01.036Z,70.89
2022-11-21T20:21:28.912Z,70.77
2022-11-21T20:23:55.937Z,71.06
2022-11-21T20:26:23.493Z,71.11
2022-11-21T20:28:50.678Z,70.53
2022-11-21T20:31:19.488Z,70.71
2022-11-21T20:33:48.046Z,71.13
2022-11-21T20:36:20.115Z,70.44
2022-11-21T20:39:15.188Z,70.42
2022-11-21T20:41:41.651Z,70.03
2022-11-21T20:47:00.742Z,71.28
2022-11-21T20:49:27.314Z,71.77
2022-11-21T20:54:40.609Z,70.68
2022-11-21T20:57:14.280Z,70.60
2022-11-21T20:59:41.471Z,70.93
2022-11-21T21:02:11.826Z,70.09
2022-11-21T21:04:38.440Z,70.67
2022-11-21T21:07:04.962Z,71.33
2022-11-21T21:09:31.727Z,70.32
2022-11-21T21:11:58.344Z,69.87
2022-11-21T21:14:24.820Z,70.82
2022-11-21T21:16:51.300Z,70.35
2022-11-21T21:19:18.274Z,70.56
2022-11-21T21:21:45.079Z,70.69
2022-11-21T21:24:12.734Z,70.51
2022-11-21T21:26:43.625Z,70.81
2022-11-21T21:29:16.155Z,71.07
2022-11-21T21:31:49.924Z,70.32
2022-11-21T21:34:17.021Z,70.97
2022-11-21T21:36:43.624Z,70.78
2022-11-21T21:39:10.076Z,71.63
2022-11-21T21:41:39.770Z,70.69
2022-11-21T21:44:06.500Z,70.50
2022-11-21T21:46:32.989Z,71.05
2022-11-21T21:48:59.546Z,71.27
2022-11-21T21:51:30.705Z,70.73
2022-11-21T21:53:58.529Z,70.36
2022-11-21T21:56:27.037Z,71.00
2022-11-21T21:58:53.661Z,70.88
2022-11-21T22:01:23.045Z,70.61
2022-11-21T22:03:53.823Z,71.73
2022-11-21T22:06:20.440Z,70.78
2022-11-21T22:08:48.489Z,71.10
2022-11-21T22:11:20.143Z,71.66
2022-11-21T22:13:51.742Z,71.45
2022-11-21T22:16:18.182Z,71.02
2022-11-21T22:18:44.821Z,70.73
2022-11-21T22:21:21.764Z,71.00
2022-11-21T22:24:22.895Z,71.08
2022-11-21T22:26:34.720Z,70.87
2022-11-21T22:29:01.167Z,71.20
2022-11-21T22:31:30.362Z,70.35
2022-11-21T22:33:57.398Z,70.71
2022-11-21T22:36:23.918Z,69.79
2022-11-21T22:38:53.835Z,70.61
2022-11-21T22:41:23.228Z,70.69
2022-11-21T22:43:52.859Z,70.39
2022-11-21T22:46:20.454Z,70.51
2022-11-21T22:48:47.722Z,70.03
2022-11-21T22:51:18.526Z,70.07
2022-11-21T22:53:49.233Z,69.92
2022-11-21T22:56:18.447Z,70.36
2022-11-21T22:58:45.777Z,69.46
2022-11-21T23:01:23.710Z,69.56
2022-11-21T23:03:50.612Z,70.41
2022-11-21T23:06:19.966Z,70.85
2022-11-21T23:08:46.957Z,69.46
2022-11-21T23:11:14.708Z,70.15
2022-11-21T23:13:43.388Z,70.29
2022-11-21T23:16:10.916Z,69.80
2022-11-21T23:18:37.472Z,70.47
2022-11-21T23:21:04.893Z,70.17
2022-11-21T23:23:31.633Z,70.05
2022-11-21T23:25:58.558Z,70.17
2022-11-21T23:28:24.869Z,70.17
2022-11-21T23:30:51.720Z,69.88
2022-11-21T23:33:18.434Z,70.19
2022-11-21T23:35:46.012Z,69.96
2022-11-21T23:38:14.022Z,69.61
2022-11-21T23:40:40.375Z,70.45
2022-11-21T23:43:06.937Z,70.56
2022-11-21T23:45:33.321Z,70.15
2022-11-21T23:47:59.622Z,70.18
2022-11-21T23:50:25.987Z,69.24
2022-11-21T23:52:52.307Z,69.80
2022-11-21T23:55:18.701Z,70.75
2022-11-21T23:57:48.755Z,69.77
